createdAt,value
2023-07-10T00:00:00.430Z,28.88
2023-07-10T00:02:26.904Z,28.69
2023-07-10T00:04:53.337Z,28.72
2023-07-10T00:07:19.956Z,28.77
2023-07-10T00:09:46.394Z,28.41
2023-07-10T00:12:12.859Z,28.56
2023-07-10T00:14:39.305Z,28.49
2023-07-10T00:17:06.585Z,28.46
2023-07-10T00:19:35.453Z,28.30
2023-07-10T00:22:01.991Z,28.59
2023-07-10T00:24:30.676Z,28.63
2023-07-10T00:26:57.255Z,28.72
2023-07-10T00:29:23.760Z,28.74
2023-07-10T00:31:50.216Z,28.35
2023-07-10T00:34:16.829Z,28.47
2023-07-10T00:36:43.357Z,28.29
2023-07-10T00:39:09.791Z,28.14
2023-07-10T00:41:36.238Z,28.20
2023-07-10T00:44:02.666Z,28.38
2023-07-10T00:46:31.430Z,27.95
2023-07-10T00:48:57.889Z,27.98
2023-07-10T00:51:24.430Z,28.11
2023-07-10T00:53:50.861Z,28.05
2023-07-10T00:56:18.427Z,27.97
2023-07-10T00:58:44.926Z,27.81
2023-07-10T01:01:12.654Z,27.68
2023-07-10T01:03:39.154Z,27.67
2023-07-10T01:06:06.129Z,27.77
2023-07-10T01:08:32.901Z,27.83
2023-07-10T01:11:01.379Z,27.73
2023-07-10T01:13:27.874Z,27.62
2023-07-10T01:15:54.371Z,27.65
2023-07-10T01:18:20.977Z,27.54
2023-07-10T01:20:47.603Z,27.57
2023-07-10T01:23:14.193Z,27.61
2023-07-10T01:25:40.611Z,27.65
2023-07-10T01:28:07.060Z,27.39
2023-07-10T01:30:33.518Z,27.33
2023-07-10T01:32:59.964Z,27.49
2023-07-10T01:35:26.484Z,27.22
2023-07-10T01:37:52.920Z,27.43
2023-07-10T01:40:19.488Z,27.34
2023-07-10T01:42:45.934Z,27.41
2023-07-10T01:45:12.368Z,27.37
2023-07-10T01:47:38.897Z,27.36
2023-07-10T01:50:05.384Z,27.41
2023-07-10T01:52:32.033Z,27.37
2023-07-10T01:54:58.538Z,27.40
2023-07-10T01:57:25.203Z,27.38
2023-07-10T01:59:51.789Z,27.62
2023-07-10T02:02:18.746Z,27.51
2023-07-10T02:04:47.120Z,27.58
2023-07-10T02:07:13.683Z,27.43
2023-07-10T02:09:40.141Z,27.54
2023-07-10T02:12:06.736Z,27.69
2023-07-10T02:14:33.161Z,27.71
2023-07-10T02:16:59.690Z,27.79
2023-07-10T02:19:26.209Z,28.10
2023-07-10T02:21:52.669Z,28.12
2023-07-10T02:24:19.115Z,27.90
2023-07-10T02:26:45.683Z,28.11
2023-07-10T02:29:12.237Z,28.09
2023-07-10T02:31:38.904Z,28.29
2023-07-10T02:34:05.380Z,28.09
2023-07-10T02:36:31.967Z,28.06
2023-07-10T02:38:58.403Z,28.17
2023-07-10T02:41:24.825Z,28.18
2023-07-10T02:43:51.431Z,28.31
2023-07-10T02:46:17.952Z,28.22
2023-07-10T02:48:44.461Z,28.16
2023-07-10T02:51:10.901Z,28.11
2023-07-10T02:53:37.361Z,28.05
2023-07-10T02:56:04.086Z,28.02
2023-07-10T02:58:30.775Z,27.86
2023-07-10T03:00:57.327Z,27.99
2023-07-10T03:03:23.803Z,27.74
2023-07-10T03:05:50.302Z,27.50
2023-07-10T03:08:16.773Z,27.35
2023-07-10T03:10:43.278Z,27.62
2023-07-10T03:13:09.709Z,27.57
2023-07-10T03:15:36.178Z,27.75
2023-07-10T03:18:02.908Z,27.41
2023-07-10T03:20:29.541Z,27.65
2023-07-10T03:22:55.996Z,27.91
2023-07-10T03:25:22.688Z,27.88
2023-07-10T03:27:50.590Z,27.90
2023-07-10T03:30:18.319Z,27.96
2023-07-10T03:32:44.946Z,28.01
2023-07-10T03:35:11.363Z,27.84
2023-07-10T03:37:38.051Z,27.93
2023-07-10T03:40:04.601Z,27.98
2023-07-10T03:42:31.139Z,27.70
2023-07-10T03:44:57.580Z,27.45
2023-07-10T03:47:24.048Z,27.58
2023-07-10T03:49:50.512Z,27.41
2023-07-10T03:52:17.089Z,27.66
2023-07-10T03:54:43.637Z,27.84
2023-07-10T03:57:11.864Z,27.50
2023-07-10T03:59:38.277Z,27.76
2023-07-10T04:02:04.786Z,27.81
2023-07-10T04:04:31.301Z,27.48
2023-07-10T04:06:58.222Z,27.48
2023-07-10T04:09:24.707Z,27.71
2023-07-10T04:11:51.129Z,27.45
2023-07-10T04:14:17.605Z,27.14
2023-07-10T04:16:44.117Z,27.34
2023-07-10T04:19:10.610Z,27.29
2023-07-10T04:21:37.043Z,27.63
2023-07-10T04:24:03.573Z,27.82
2023-07-10T04:26:30.017Z,27.39
2023-07-10T04:28:56.499Z,27.59
2023-07-10T04:31:23.100Z,27.87
2023-07-10T04:33:49.596Z,27.98
2023-07-10T04:36:16.015Z,28.18
2023-07-10T04:38:42.585Z,28.11
2023-07-10T04:41:09.042Z,28.04
2023-07-10T04:43:35.478Z,28.28
2023-07-10T04:46:02.188Z,28.12
2023-07-10T04:48:28.949Z,28.38
2023-07-10T04:50:55.697Z,28.46
2023-07-10T04:53:22.182Z,28.45
2023-07-10T04:55:48.625Z,28.57
2023-07-10T04:58:16.190Z,28.64
2023-07-10T05:00:42.619Z,28.80
2023-07-10T05:03:09.162Z,28.67
2023-07-10T05:05:35.859Z,28.82
2023-07-10T05:08:02.340Z,28.93
2023-07-10T05:10:28.843Z,28.77
2023-07-10T05:12:55.305Z,29.05
2023-07-10T05:15:21.871Z,28.99
2023-07-10T05:17:48.370Z,28.95
2023-07-10T05:20:14.861Z,29.03
2023-07-10T05:22:41.278Z,28.92
2023-07-10T05:25:07.723Z,29.08
2023-07-10T05:27:34.456Z,29.26
2023-07-10T05:30:00.976Z,29.28
2023-07-10T05:32:27.525Z,29.39
2023-07-10T05:34:54.037Z,29.32
2023-07-10T05:37:20.699Z,29.42
2023-07-10T05:39:47.163Z,29.18
2023-07-10T05:42:13.760Z,29.22
2023-07-10T05:44:40.196Z,29.43
2023-07-10T05:47:06.868Z,29.50
2023-07-10T05:49:33.394Z,29.70
2023-07-10T05:51:59.888Z,29.82
2023-07-10T05:54:26.426Z,29.91
2023-07-10T05:56:52.886Z,29.84
2023-07-10T05:59:19.441Z,29.98
2023-07-10T06:01:46.227Z,29.85
2023-07-10T06:04:15.986Z,29.88
2023-07-10T06:06:42.644Z,29.97
2023-07-10T06:09:09.072Z,29.76
2023-07-10T06:11:35.576Z,29.93
2023-07-10T06:14:02.141Z,30.11
2023-07-10T06:16:28.703Z,30.19
2023-07-10T06:18:55.282Z,30.05
2023-07-10T06:21:21.794Z,30.20
2023-07-10T06:23:48.594Z,30.11
2023-07-10T06:26:15.188Z,30.10
2023-07-10T06:28:41.620Z,30.08
2023-07-10T06:31:08.311Z,29.84
2023-07-10T06:33:34.840Z,29.82
2023-07-10T06:36:01.413Z,29.94
2023-07-10T06:38:27.930Z,29.99
2023-07-10T06:40:55.062Z,29.89
2023-07-10T06:43:21.548Z,29.48
2023-07-10T06:45:48.185Z,29.57
2023-07-10T06:48:16.726Z,29.58
2023-07-10T06:50:43.292Z,29.79
2023-07-10T06:53:24.922Z,30.14
2023-07-10T06:55:53.523Z,30.25
2023-07-10T06:58:22.779Z,30.24
2023-07-10T07:00:49.296Z,30.17
2023-07-10T07:03:19.103Z,30.19
2023-07-10T07:05:45.828Z,30.29
2023-07-10T07:08:13.564Z,30.65
2023-07-10T07:10:40.012Z,30.62
2023-07-10T07:13:06.613Z,30.56
2023-07-10T07:15:33.067Z,30.99
2023-07-10T07:17:59.626Z,30.89
2023-07-10T07:20:26.261Z,31.22
2023-07-10T07:22:52.744Z,31.14
2023-07-10T07:25:19.204Z,30.70
2023-07-10T07:27:45.715Z,31.08
2023-07-10T07:30:12.266Z,30.49
2023-07-10T07:32:38.809Z,30.32
2023-07-10T07:35:05.468Z,30.77
2023-07-10T07:37:31.987Z,30.77
2023-07-10T07:39:58.433Z,30.75
2023-07-10T07:42:24.932Z,30.53
2023-07-10T07:44:51.519Z,30.96
2023-07-10T07:47:17.994Z,31.10
2023-07-10T07:49:44.547Z,31.43
2023-07-10T07:52:11.156Z,31.32
2023-07-10T07:54:37.608Z,31.75
2023-07-10T07:57:04.029Z,31.76
2023-07-10T07:59:30.495Z,31.81
2023-07-10T08:01:57.133Z,31.95
2023-07-10T08:04:23.651Z,32.09
2023-07-10T08:06:50.316Z,31.82
2023-07-10T08:09:16.889Z,31.52
2023-07-10T08:11:43.533Z,31.91
2023-07-10T08:14:10.071Z,31.97
2023-07-10T08:16:36.776Z,32.33
2023-07-10T08:19:03.301Z,32.37
2023-07-10T08:21:29.745Z,32.20
2023-07-10T08:23:56.206Z,31.90
2023-07-10T08:26:22.653Z,32.22
2023-07-10T08:28:49.106Z,32.72
2023-07-10T08:31:15.656Z,32.83
2023-07-10T08:33:42.097Z,32.74
2023-07-10T08:36:08.667Z,32.80
2023-07-10T08:38:35.214Z,32.86
2023-07-10T08:41:04.941Z,32.86
2023-07-10T08:43:31.370Z,32.82
2023-07-10T08:45:58.022Z,32.90
2023-07-10T08:48:24.582Z,32.82
2023-07-10T08:50:51.102Z,32.93
2023-07-10T08:53:17.603Z,32.92
2023-07-10T08:55:44.354Z,32.95
2023-07-10T08:58:10.809Z,33.12
2023-07-10T09:00:37.227Z,33.10
2023-07-10T09:03:03.839Z,33.04
2023-07-10T09:05:30.440Z,33.27
2023-07-10T09:07:56.892Z,33.31
2023-07-10T09:10:23.552Z,33.28
2023-07-10T09:12:51.502Z,33.35
2023-07-10T09:15:18.006Z,33.39
2023-07-10T09:17:44.749Z,33.31
2023-07-10T09:20:11.491Z,32.96
2023-07-10T09:22:38.107Z,33.12
2023-07-10T09:25:04.634Z,33.47
2023-07-10T09:27:31.089Z,33.52
2023-07-10T09:29:57.536Z,33.43
2023-07-10T09:32:24.082Z,33.54
2023-07-10T09:34:50.555Z,33.49
2023-07-10T09:37:17.004Z,33.57
2023-07-10T09:39:43.428Z,33.68
2023-07-10T09:42:12.927Z,33.64
2023-07-10T09:44:39.358Z,33.51
2023-07-10T09:47:05.798Z,33.75
2023-07-10T09:49:32.225Z,33.80
2023-07-10T09:51:58.757Z,33.93
2023-07-10T09:54:25.222Z,33.85
2023-07-10T09:56:51.699Z,34.02
2023-07-10T09:59:18.139Z,34.00
2023-07-10T10:01:44.850Z,33.92
2023-07-10T10:04:11.448Z,34.07
2023-07-10T10:06:38.028Z,33.90
2023-07-10T10:09:04.501Z,34.01
2023-07-10T10:11:30.900Z,34.08
2023-07-10T10:13:57.767Z,34.11
2023-07-10T10:16:24.605Z,34.21
2023-07-10T10:18:51.179Z,34.06
2023-07-10T10:21:17.804Z,34.07
2023-07-10T10:23:44.388Z,34.14
2023-07-10T10:26:10.899Z,33.61
2023-07-10T10:28:37.351Z,33.80
2023-07-10T10:31:03.854Z,33.71
2023-07-10T10:33:30.356Z,33.99
2023-07-10T10:35:57.126Z,33.86
2023-07-10T10:38:23.871Z,33.46
2023-07-10T10:40:50.324Z,33.94
2023-07-10T10:43:17.055Z,34.12
2023-07-10T10:45:43.589Z,34.02
2023-07-10T10:48:10.051Z,34.17
2023-07-10T10:50:36.665Z,34.28
2023-07-10T10:53:03.140Z,34.45
2023-07-10T10:55:29.558Z,34.30
2023-07-10T10:57:55.995Z,34.18
2023-07-10T11:00:22.535Z,34.49
2023-07-10T11:02:49.733Z,34.62
2023-07-10T11:05:16.570Z,34.33
2023-07-10T11:07:43.104Z,34.50
2023-07-10T11:10:09.582Z,34.69
2023-07-10T11:12:36.098Z,34.76
2023-07-10T11:15:04.372Z,34.79
2023-07-10T11:17:31.000Z,34.58
2023-07-10T11:19:57.429Z,34.35
2023-07-10T11:22:23.928Z,34.48
2023-07-10T11:24:50.429Z,34.29
2023-07-10T11:27:17.062Z,34.12
2023-07-10T11:29:43.587Z,34.62
2023-07-10T11:32:09.996Z,34.61
2023-07-10T11:34:36.479Z,34.83
2023-07-10T11:37:02.965Z,34.80
2023-07-10T11:39:29.581Z,34.89
2023-07-10T11:41:56.028Z,34.76
2023-07-10T11:44:22.651Z,35.03
2023-07-10T11:46:49.174Z,35.13
2023-07-10T11:49:15.781Z,34.87
2023-07-10T11:51:42.274Z,35.11
2023-07-10T11:54:08.708Z,35.29
2023-07-10T11:56:35.184Z,35.30
2023-07-10T11:59:01.818Z,35.33
2023-07-10T12:01:28.384Z,35.29
2023-07-10T12:03:54.939Z,35.14
2023-07-10T12:06:21.452Z,35.22
2023-07-10T12:08:47.916Z,35.47
2023-07-10T12:11:14.364Z,35.24
2023-07-10T12:13:40.823Z,35.38
2023-07-10T12:16:07.706Z,35.57
2023-07-10T12:18:34.294Z,35.46
2023-07-10T12:21:00.872Z,35.41
2023-07-10T12:23:27.344Z,35.61
2023-07-10T12:25:54.069Z,35.54
2023-07-10T12:28:25.654Z,35.64
2023-07-10T12:30:54.023Z,35.65
2023-07-10T12:33:20.695Z,35.72
2023-07-10T12:35:47.141Z,35.59
2023-07-10T12:38:13.707Z,35.76
2023-07-10T12:40:40.305Z,35.67
2023-07-10T12:43:06.729Z,35.42
2023-07-10T12:45:33.183Z,35.84
2023-07-10T12:47:59.886Z,35.90
2023-07-10T12:50:26.334Z,35.63
2023-07-10T12:52:52.780Z,35.73
2023-07-10T12:55:19.534Z,35.99
2023-07-10T12:57:46.102Z,36.15
2023-07-10T13:00:12.663Z,36.38
2023-07-10T13:02:39.403Z,36.41
2023-07-10T13:05:06.024Z,36.45
2023-07-10T13:07:32.711Z,36.61
2023-07-10T13:09:59.146Z,36.85
2023-07-10T13:12:25.609Z,36.59
2023-07-10T13:14:52.177Z,36.22
2023-07-10T13:17:18.829Z,36.82
2023-07-10T13:19:55.067Z,36.76
2023-07-10T13:22:29.639Z,36.83
2023-07-10T13:24:56.312Z,36.58
2023-07-10T13:27:23.377Z,36.79
2023-07-10T13:29:50.147Z,37.32
2023-07-10T13:32:16.887Z,36.95
2023-07-10T13:34:43.491Z,36.95
2023-07-10T13:37:09.965Z,37.11
2023-07-10T13:39:36.408Z,36.63
2023-07-10T13:42:02.912Z,36.63
2023-07-10T13:44:29.486Z,36.89
2023-07-10T13:46:56.497Z,37.38
2023-07-10T13:49:23.047Z,37.61
2023-07-10T13:51:49.547Z,37.89
2023-07-10T13:54:16.089Z,38.32
2023-07-10T13:56:42.634Z,38.49
2023-07-10T13:59:09.094Z,38.99
2023-07-10T14:01:35.623Z,39.24
2023-07-10T14:04:02.120Z,40.33
2023-07-10T14:06:28.867Z,40.13
2023-07-10T14:08:55.444Z,40.98
2023-07-10T14:11:21.939Z,41.27
2023-07-10T14:13:48.497Z,42.14
2023-07-10T14:16:14.967Z,42.44
2023-07-10T14:18:41.459Z,42.08
2023-07-10T14:21:08.342Z,42.63
2023-07-10T14:23:34.959Z,43.22
2023-07-10T14:26:02.925Z,42.93
2023-07-10T14:28:30.146Z,42.55
2023-07-10T14:30:56.624Z,40.43
2023-07-10T14:33:23.096Z,39.69
2023-07-10T14:35:51.164Z,41.27
2023-07-10T14:38:20.052Z,41.93
2023-07-10T14:40:46.677Z,42.87
2023-07-10T14:43:13.130Z,43.57
2023-07-10T14:45:39.875Z,43.85
2023-07-10T14:48:06.324Z,44.30
2023-07-10T14:50:33.047Z,45.39
2023-07-10T14:52:59.529Z,45.32
2023-07-10T14:55:26.125Z,45.45
2023-07-10T14:57:52.653Z,45.73
2023-07-10T15:00:19.275Z,45.10
2023-07-10T15:02:46.031Z,45.52
2023-07-10T15:05:12.597Z,45.94
2023-07-10T15:07:41.331Z,45.74
2023-07-10T15:10:24.147Z,44.63
2023-07-10T15:12:52.793Z,45.02
2023-07-10T15:15:19.263Z,45.74
2023-07-10T15:17:45.834Z,45.93
2023-07-10T15:20:12.299Z,46.27
2023-07-10T15:22:38.844Z,45.05
2023-07-10T15:25:05.293Z,45.70
2023-07-10T15:27:31.779Z,44.54
2023-07-10T15:29:58.342Z,44.63
2023-07-10T15:32:24.792Z,44.68
2023-07-10T15:34:51.259Z,44.29
2023-07-10T15:37:20.011Z,44.32
2023-07-10T15:39:46.762Z,42.74
2023-07-10T15:42:13.267Z,43.36
2023-07-10T15:44:39.822Z,44.68
2023-07-10T15:47:06.406Z,43.85
2023-07-10T15:49:32.922Z,44.16
2023-07-10T15:51:59.506Z,44.34
2023-07-10T15:54:26.069Z,43.97
2023-07-10T15:56:52.793Z,44.42
2023-07-10T15:59:19.275Z,42.90
2023-07-10T16:01:45.796Z,44.39
2023-07-10T16:04:12.241Z,44.92
2023-07-10T16:06:40.139Z,46.26
2023-07-10T16:09:07.044Z,46.51
2023-07-10T16:11:33.595Z,45.68
2023-07-10T16:14:00.127Z,46.32
2023-07-10T16:16:26.675Z,46.42
2023-07-10T16:18:53.202Z,45.32
2023-07-10T16:21:19.632Z,44.12
2023-07-10T16:23:46.208Z,45.64
2023-07-10T16:26:12.698Z,44.45
2023-07-10T16:28:39.228Z,44.11
2023-07-10T16:31:06.166Z,43.58
2023-07-10T16:33:32.881Z,45.21
2023-07-10T16:35:59.344Z,45.70
2023-07-10T16:38:25.796Z,45.50
2023-07-10T16:40:52.270Z,45.47
2023-07-10T16:43:18.752Z,45.58
2023-07-10T16:45:45.165Z,43.94
2023-07-10T16:48:20.602Z,42.82
2023-07-10T16:50:47.046Z,42.31
2023-07-10T16:53:13.464Z,41.73
2023-07-10T16:55:39.953Z,40.62
2023-07-10T16:58:06.358Z,40.24
2023-07-10T17:00:32.814Z,39.88
2023-07-10T17:02:59.431Z,39.98
2023-07-10T17:05:26.097Z,39.60
2023-07-10T17:07:52.560Z,39.37
2023-07-10T17:10:19.186Z,38.42
2023-07-10T17:12:45.752Z,38.81
2023-07-10T17:15:12.293Z,38.32
2023-07-10T17:17:38.722Z,38.20
2023-07-10T17:20:05.197Z,37.71
2023-07-10T17:22:31.624Z,37.72
2023-07-10T17:24:58.086Z,38.23
2023-07-10T17:27:24.595Z,37.52
2023-07-10T17:29:51.082Z,37.32
2023-07-10T17:32:17.525Z,36.78
2023-07-10T17:34:44.005Z,37.52
2023-07-10T17:37:10.527Z,37.92
2023-07-10T17:39:37.078Z,37.56
2023-07-10T17:42:03.538Z,37.35
2023-07-10T17:44:30.092Z,36.91
2023-07-10T17:46:56.584Z,37.22
2023-07-10T17:49:23.127Z,37.20
2023-07-10T17:51:49.759Z,37.04
2023-07-10T17:54:16.342Z,37.37
2023-07-10T17:56:42.825Z,36.95
2023-07-10T17:59:12.393Z,36.92
2023-07-10T18:01:38.978Z,36.87
2023-07-10T18:04:05.460Z,36.79
2023-07-10T18:06:31.982Z,36.94
2023-07-10T18:08:58.423Z,36.59
2023-07-10T18:11:24.890Z,37.01
2023-07-10T18:13:51.574Z,37.11
2023-07-10T18:16:18.066Z,36.91
2023-07-10T18:18:44.569Z,36.52
2023-07-10T18:21:11.122Z,36.06
2023-07-10T18:23:37.585Z,35.80
2023-07-10T18:26:04.111Z,36.10
2023-07-10T18:28:30.645Z,36.04
2023-07-10T18:30:57.064Z,36.28
2023-07-10T18:33:23.546Z,36.04
2023-07-10T18:35:50.038Z,36.08
2023-07-10T18:38:16.690Z,36.01
2023-07-10T18:40:43.141Z,36.17
2023-07-10T18:43:09.554Z,36.16
2023-07-10T18:45:36.069Z,35.96
2023-07-10T18:48:02.491Z,35.93
2023-07-10T18:50:28.964Z,36.07
2023-07-10T18:52:55.411Z,36.01
2023-07-10T18:55:21.870Z,35.82
2023-07-10T18:57:48.315Z,35.69
2023-07-10T19:02:45.109Z,35.44
2023-07-10T19:05:11.680Z,34.99
2023-07-10T19:07:38.112Z,34.91
2023-07-10T19:10:04.556Z,35.19
2023-07-10T19:12:31.080Z,34.67
2023-07-10T19:15:00.631Z,35.15
2023-07-10T19:17:27.141Z,35.20
2023-07-10T19:19:53.567Z,35.22
2023-07-10T19:22:20.205Z,35.22
2023-07-10T19:24:46.841Z,35.15
2023-07-10T19:27:13.417Z,34.89
2023-07-10T19:29:40.319Z,34.89
2023-07-10T19:32:06.740Z,34.81
2023-07-10T19:34:33.170Z,34.72
2023-07-10T19:36:59.668Z,34.51
2023-07-10T19:39:26.213Z,34.55
2023-07-10T19:41:52.749Z,34.65
2023-07-10T19:44:19.214Z,34.57
2023-07-10T19:46:45.692Z,34.42
2023-07-10T19:49:12.175Z,34.24
2023-07-10T19:51:38.609Z,34.21
2023-07-10T19:54:05.060Z,34.00
2023-07-10T19:56:31.597Z,33.76
2023-07-10T19:58:58.112Z,33.67
2023-07-10T20:01:26.656Z,33.69
2023-07-10T20:03:53.121Z,33.94
2023-07-10T20:06:19.669Z,34.03
2023-07-10T20:08:46.102Z,33.90
2023-07-10T20:11:12.537Z,33.81
2023-07-10T20:13:39.038Z,33.53
2023-07-10T20:16:06.161Z,33.45
2023-07-10T20:18:32.927Z,33.52
2023-07-10T20:20:59.405Z,33.32
2023-07-10T20:23:25.851Z,33.63
2023-07-10T20:25:52.386Z,33.78
2023-07-10T20:28:18.911Z,33.72
2023-07-10T20:30:45.473Z,33.61
2023-07-10T20:33:12.137Z,33.38
2023-07-10T20:35:38.695Z,33.32
2023-07-10T20:38:05.199Z,32.91
2023-07-10T20:40:31.806Z,33.00
2023-07-10T20:42:58.384Z,32.90
2023-07-10T20:45:24.918Z,32.93
2023-07-10T20:47:51.444Z,32.95
2023-07-10T20:50:18.015Z,33.16
2023-07-10T20:52:44.480Z,33.32
2023-07-10T20:55:11.018Z,33.32
2023-07-10T20:57:38.347Z,33.17
2023-07-10T21:00:04.916Z,33.16
2023-07-10T21:02:31.364Z,33.23
2023-07-10T21:04:57.886Z,32.62
2023-07-10T21:07:24.334Z,32.27
2023-07-10T21:09:50.894Z,32.63
2023-07-10T21:12:17.337Z,32.64
2023-07-10T21:14:43.749Z,32.86
2023-07-10T21:17:10.203Z,33.01
2023-07-10T21:19:36.634Z,33.02
2023-07-10T21:22:03.069Z,32.97
2023-07-10T21:24:29.495Z,32.95
2023-07-10T21:26:56.016Z,32.96
2023-07-10T21:29:22.470Z,32.94
2023-07-10T21:31:49.090Z,32.84
2023-07-10T21:34:15.606Z,32.84
2023-07-10T21:36:42.177Z,32.77
2023-07-10T21:39:08.630Z,32.64
2023-07-10T21:41:35.302Z,32.42
2023-07-10T21:44:01.748Z,32.59
2023-07-10T21:46:28.335Z,32.49
2023-07-10T21:48:54.828Z,32.46
2023-07-10T21:51:23.685Z,32.47
2023-07-10T21:53:50.133Z,32.48
2023-07-10T21:56:16.605Z,32.46
2023-07-10T21:58:43.029Z,32.32
2023-07-10T22:01:09.470Z,32.36
2023-07-10T22:03:36.130Z,32.26
2023-07-10T22:06:02.722Z,32.07
2023-07-10T22:08:29.276Z,31.92
2023-07-10T22:10:55.717Z,32.02
2023-07-10T22:13:22.158Z,31.91
2023-07-10T22:15:48.656Z,31.96
2023-07-10T22:18:15.122Z,31.98
2023-07-10T22:20:41.717Z,31.83
2023-07-10T22:23:08.274Z,31.82
2023-07-10T22:25:34.709Z,31.63
2023-07-10T22:28:01.138Z,31.57
2023-07-10T22:30:27.565Z,31.60
2023-07-10T22:32:54.310Z,31.30
2023-07-10T22:35:20.736Z,31.07
2023-07-10T22:37:47.246Z,30.73
2023-07-10T22:40:13.812Z,30.84
2023-07-10T22:42:40.237Z,30.79
2023-07-10T22:45:06.982Z,30.93
2023-07-10T22:47:33.469Z,30.86
2023-07-10T22:49:59.923Z,30.80
2023-07-10T22:52:26.371Z,30.72
2023-07-10T22:54:52.800Z,30.72
2023-07-10T22:57:19.270Z,30.55
2023-07-10T22:59:45.914Z,30.40
2023-07-10T23:02:12.430Z,30.36
2023-07-10T23:04:41.152Z,30.43
2023-07-10T23:07:07.601Z,30.49
2023-07-10T23:09:34.040Z,30.41
2023-07-10T23:12:00.448Z,30.35
2023-07-10T23:14:26.929Z,30.19
2023-07-10T23:16:53.346Z,30.38
2023-07-10T23:19:19.766Z,30.44
2023-07-10T23:21:46.214Z,30.52
2023-07-10T23:24:12.683Z,30.53
2023-07-10T23:26:39.145Z,30.62
2023-07-10T23:29:05.594Z,30.53
2023-07-10T23:31:32.057Z,30.68
2023-07-10T23:33:58.552Z,30.64
2023-07-10T23:36:24.955Z,30.66
2023-07-10T23:38:51.392Z,30.40
2023-07-10T23:41:18.011Z,30.46
2023-07-10T23:43:44.500Z,30.55
2023-07-10T23:46:11.009Z,30.55
2023-07-10T23:48:37.441Z,30.29
2023-07-10T23:51:04.110Z,29.82
2023-07-10T23:53:30.620Z,29.96
2023-07-10T23:55:57.240Z,29.86
2023-07-10T23:58:23.681Z,29.49
